sensor_id;sensor_type;location;lat;lon;timestamp;P1;durP1;ratioP1;P2;durP2;ratioP2
39822;SDS011;25499;53.958;10.970;2023-04-24T05:32:42;3.00;;;2.70;;
39822;SDS011;25499;53.958;10.970;2023-04-24T05:35:10;3.88;;;3.00;;
39822;SDS011;25499;53.958;10.970;2023-04-24T05:37:37;3.75;;;3.15;;
39822;SDS011;25499;53.958;10.970;2023-04-24T05:40:05;3.35;;;2.88;;
39822;SDS011;25499;53.958;10.970;2023-04-24T05:42:32;4.70;;;2.55;;
39822;SDS011;25499;53.958;10.970;2023-04-24T05:44:59;2.80;;;2.60;;
39822;SDS011;25499;53.958;10.970;2023-04-24T05:47:26;3.00;;;2.60;;
39822;SDS011;25499;53.958;10.970;2023-04-24T05:49:56;2.95;;;2.65;;
39822;SDS011;25499;53.958;10.970;2023-04-24T05:52:23;2.63;;;2.28;;
39822;SDS011;25499;53.958;10.970;2023-04-24T05:54:50;2.72;;;2.47;;
39822;SDS011;25499;53.958;10.970;2023-04-24T05:57:16;2.40;;;2.20;;
39822;SDS011;25499;53.958;10.970;2023-04-24T05:59:43;2.17;;;1.92;;
39822;SDS011;25499;53.958;10.970;2023-04-24T06:02:11;3.20;;;1.80;;
39822;SDS011;25499;53.958;10.970;2023-04-24T06:04:38;3.67;;;1.60;;
39822;SDS011;25499;53.958;10.970;2023-04-24T06:07:06;2.05;;;1.50;;
39822;SDS011;25499;53.958;10.970;2023-04-24T06:09:33;1.95;;;1.55;;
39822;SDS011;25499;53.958;10.970;2023-04-24T06:12:00;1.40;;;1.30;;
39822;SDS011;25499;53.958;10.970;2023-04-24T06:14:27;2.75;;;1.50;;
39822;SDS011;25499;53.958;10.970;2023-04-24T06:16:54;2.80;;;1.52;;
39822;SDS011;25499;53.958;10.970;2023-04-24T06:19:21;1.65;;;1.55;;
39822;SDS011;25499;53.958;10.970;2023-04-24T06:21:48;1.85;;;1.33;;
39822;SDS011;25499;53.958;10.970;2023-04-24T06:24:16;3.65;;;1.50;;
39822;SDS011;25499;53.958;10.970;2023-04-24T06:26:43;5.15;;;1.10;;
39822;SDS011;25499;53.958;10.970;2023-04-24T06:29:10;2.88;;;1.45;;
39822;SDS011;25499;53.958;10.970;2023-04-24T06:31:37;2.30;;;1.30;;
39822;SDS011;25499;53.958;10.970;2023-04-24T06:34:03;2.28;;;1.40;;
39822;SDS011;25499;53.958;10.970;2023-04-24T06:36:32;1.50;;;1.40;;
39822;SDS011;25499;53.958;10.970;2023-04-24T06:39:00;2.03;;;1.40;;
39822;SDS011;25499;53.958;10.970;2023-04-24T06:41:29;1.13;;;1.02;;
39822;SDS011;25499;53.958;10.970;2023-04-24T06:43:56;3.35;;;1.20;;
39822;SDS011;25499;53.958;10.970;2023-04-24T06:46:22;1.25;;;1.15;;
39822;SDS011;25499;53.958;10.970;2023-04-24T06:48:52;1.10;;;1.00;;
39822;SDS011;25499;53.958;10.970;2023-04-24T06:51:20;2.17;;;1.30;;
39822;SDS011;25499;53.958;10.970;2023-04-24T06:53:48;1.50;;;1.20;;
39822;SDS011;25499;53.958;10.970;2023-04-24T06:56:15;1.35;;;1.25;;
39822;SDS011;25499;53.958;10.970;2023-04-24T06:58:43;1.42;;;0.93;;
39822;SDS011;25499;53.958;10.970;2023-04-24T07:01:10;2.38;;;1.00;;
39822;SDS011;25499;53.958;10.970;2023-04-24T07:03:37;1.58;;;0.90;;
39822;SDS011;25499;53.958;10.970;2023-04-24T07:06:06;1.00;;;0.90;;
39822;SDS011;25499;53.958;10.970;2023-04-24T07:08:33;2.58;;;1.00;;
39822;SDS011;25499;53.958;10.970;2023-04-24T07:11:00;1.15;;;1.00;;
39822;SDS011;25499;53.958;10.970;2023-04-24T07:13:27;1.42;;;1.00;;
39822;SDS011;25499;53.958;10.970;2023-04-24T07:15:55;1.08;;;0.98;;
39822;SDS011;25499;53.958;10.970;2023-04-24T07:18:24;1.80;;;0.80;;
39822;SDS011;25499;53.958;10.970;2023-04-24T07:20:50;2.22;;;0.90;;
39822;SDS011;25499;53.958;10.970;2023-04-24T07:23:19;0.80;;;0.70;;
39822;SDS011;25499;53.958;10.970;2023-04-24T07:25:46;0.70;;;0.60;;
39822;SDS011;25499;53.958;10.970;2023-04-24T07:28:13;1.08;;;0.90;;
39822;SDS011;25499;53.958;10.970;2023-04-24T07:30:40;1.58;;;0.98;;
39822;SDS011;25499;53.958;10.970;2023-04-24T07:33:08;1.08;;;0.98;;
39822;SDS011;25499;53.958;10.970;2023-04-24T07:35:36;3.22;;;0.82;;
39822;SDS011;25499;53.958;10.970;2023-04-24T07:38:03;0.95;;;0.80;;
39822;SDS011;25499;53.958;10.970;2023-04-24T07:40:30;3.00;;;0.90;;
39822;SDS011;25499;53.958;10.970;2023-04-24T07:42:56;1.98;;;0.95;;
39822;SDS011;25499;53.958;10.970;2023-04-24T07:45:23;1.20;;;0.93;;
39822;SDS011;25499;53.958;10.970;2023-04-24T07:47:52;1.08;;;0.80;;
39822;SDS011;25499;53.958;10.970;2023-04-24T07:50:20;1.30;;;0.93;;
39822;SDS011;25499;53.958;10.970;2023-04-24T07:52:47;1.88;;;0.82;;
39822;SDS011;25499;53.958;10.970;2023-04-24T07:55:14;0.80;;;0.70;;
39822;SDS011;25499;53.958;10.970;2023-04-24T07:57:41;1.35;;;0.73;;
39822;SDS011;25499;53.958;10.970;2023-04-24T08:00:14;1.50;;;0.90;;
39822;SDS011;25499;53.958;10.970;2023-04-24T08:02:41;1.25;;;0.70;;
39822;SDS011;25499;53.958;10.970;2023-04-24T08:05:09;0.70;;;0.70;;
39822;SDS011;25499;53.958;10.970;2023-04-24T08:07:37;0.82;;;0.82;;
39822;SDS011;25499;53.958;10.970;2023-04-24T08:10:05;0.80;;;0.70;;
39822;SDS011;25499;53.958;10.970;2023-04-24T08:12:32;1.73;;;0.77;;
39822;SDS011;25499;53.958;10.970;2023-04-24T08:14:59;0.85;;;0.80;;
39822;SDS011;25499;53.958;10.970;2023-04-24T08:17:26;0.88;;;0.80;;
39822;SDS011;25499;53.958;10.970;2023-04-24T08:19:52;0.70;;;0.70;;
39822;SDS011;25499;53.958;10.970;2023-04-24T08:22:26;0.75;;;0.75;;
39822;SDS011;25499;53.958;10.970;2023-04-24T08:24:56;1.27;;;0.80;;
39822;SDS011;25499;53.958;10.970;2023-04-24T08:27:23;2.53;;;0.50;;
39822;SDS011;25499;53.958;10.970;2023-04-24T08:29:50;2.00;;;0.65;;
39822;SDS011;25499;53.958;10.970;2023-04-24T08:32:18;1.42;;;0.68;;
39822;SDS011;25499;53.958;10.970;2023-04-24T08:34:45;0.85;;;0.68;;
39822;SDS011;25499;53.958;10.970;2023-04-24T08:37:12;0.73;;;0.73;;
39822;SDS011;25499;53.958;10.970;2023-04-24T08:39:40;0.60;;;0.60;;
39822;SDS011;25499;53.958;10.970;2023-04-24T08:42:08;2.63;;;0.90;;
39822;SDS011;25499;53.958;10.970;2023-04-24T08:44:35;1.27;;;0.95;;
39822;SDS011;25499;53.958;10.970;2023-04-24T08:47:02;1.52;;;1.05;;
39822;SDS011;25499;53.958;10.970;2023-04-24T08:49:29;5.88;;;1.13;;
39822;SDS011;25499;53.958;10.970;2023-04-24T08:51:57;2.42;;;0.70;;
39822;SDS011;25499;53.958;10.970;2023-04-24T08:54:24;1.05;;;0.95;;
39822;SDS011;25499;53.958;10.970;2023-04-24T08:56:52;2.00;;;0.90;;
39822;SDS011;25499;53.958;10.970;2023-04-24T08:59:24;1.02;;;0.90;;
39822;SDS011;25499;53.958;10.970;2023-04-24T09:01:51;2.35;;;1.10;;
39822;SDS011;25499;53.958;10.970;2023-04-24T09:04:20;1.10;;;1.00;;
39822;SDS011;25499;53.958;10.970;2023-04-24T09:06:49;1.00;;;0.70;;
39822;SDS011;25499;53.958;10.970;2023-04-24T09:09:18;1.15;;;1.05;;
39822;SDS011;25499;53.958;10.970;2023-04-24T09:11:44;1.08;;;0.70;;
39822;SDS011;25499;53.958;10.970;2023-04-24T09:14:12;1.35;;;1.10;;
39822;SDS011;25499;53.958;10.970;2023-04-24T09:16:41;1.38;;;1.10;;
39822;SDS011;25499;53.958;10.970;2023-04-24T09:19:09;1.23;;;0.80;;
39822;SDS011;25499;53.958;10.970;2023-04-24T09:21:35;0.90;;;0.80;;
39822;SDS011;25499;53.958;10.970;2023-04-24T09:24:03;1.38;;;1.00;;
39822;SDS011;25499;53.958;10.970;2023-04-24T09:26:34;1.15;;;0.90;;
39822;SDS011;25499;53.958;10.970;2023-04-24T09:29:02;3.30;;;0.90;;
39822;SDS011;25499;53.958;10.970;2023-04-24T09:31:30;0.90;;;0.90;;
39822;SDS011;25499;53.958;10.970;2023-04-24T09:33:58;2.13;;;0.88;;
39822;SDS011;25499;53.958;10.970;2023-04-24T09:36:28;1.05;;;0.90;;
39822;SDS011;25499;53.958;10.970;2023-04-24T09:38:59;1.05;;;0.80;;
39822;SDS011;25499;53.958;10.970;2023-04-24T09:41:26;2.10;;;1.00;;
39822;SDS011;25499;53.958;10.970;2023-04-24T09:43:54;3.20;;;0.50;;
39822;SDS011;25499;53.958;10.970;2023-04-24T09:46:28;0.90;;;0.77;;
39822;SDS011;25499;53.958;10.970;2023-04-24T09:48:57;0.80;;;0.80;;
39822;SDS011;25499;53.958;10.970;2023-04-24T09:51:33;0.70;;;0.70;;
39822;SDS011;25499;53.958;10.970;2023-04-24T09:54:02;1.15;;;0.82;;
39822;SDS011;25499;53.958;10.970;2023-04-24T09:56:32;1.05;;;0.75;;
39822;SDS011;25499;53.958;10.970;2023-04-24T09:59:05;0.80;;;0.50;;
39822;SDS011;25499;53.958;10.970;2023-04-24T10:01:32;1.85;;;0.80;;
39822;SDS011;25499;53.958;10.970;2023-04-24T10:04:01;1.20;;;1.00;;
39822;SDS011;25499;53.958;10.970;2023-04-24T10:06:33;0.65;;;0.60;;
39822;SDS011;25499;53.958;10.970;2023-04-24T10:09:01;1.30;;;0.77;;
39822;SDS011;25499;53.958;10.970;2023-04-24T10:11:28;1.38;;;0.90;;
39822;SDS011;25499;53.958;10.970;2023-04-24T10:13:56;0.75;;;0.75;;
39822;SDS011;25499;53.958;10.970;2023-04-24T10:16:23;1.38;;;0.82;;
39822;SDS011;25499;53.958;10.970;2023-04-24T10:18:52;1.05;;;0.95;;
39822;SDS011;25499;53.958;10.970;2023-04-24T10:21:20;1.02;;;0.90;;
39822;SDS011;25499;53.958;10.970;2023-04-24T10:23:47;1.25;;;1.10;;
39822;SDS011;25499;53.958;10.970;2023-04-24T10:26:15;1.20;;;1.10;;
39822;SDS011;25499;53.958;10.970;2023-04-24T10:28:45;3.40;;;1.23;;
39822;SDS011;25499;53.958;10.970;2023-04-24T10:31:12;1.95;;;1.50;;
39822;SDS011;25499;53.958;10.970;2023-04-24T10:33:39;1.52;;;1.40;;
39822;SDS011;25499;53.958;10.970;2023-04-24T10:36:09;1.70;;;1.20;;
39822;SDS011;25499;53.958;10.970;2023-04-24T10:38:39;1.00;;;0.87;;
39822;SDS011;25499;53.958;10.970;2023-04-24T10:41:09;2.08;;;1.20;;
39822;SDS011;25499;53.958;10.970;2023-04-24T10:43:41;1.73;;;1.63;;
39822;SDS011;25499;53.958;10.970;2023-04-24T10:46:09;2.10;;;1.70;;
39822;SDS011;25499;53.958;10.970;2023-04-24T10:48:41;1.88;;;1.67;;
39822;SDS011;25499;53.958;10.970;2023-04-24T10:51:11;1.70;;;1.60;;
39822;SDS011;25499;53.958;10.970;2023-04-24T10:53:39;2.42;;;2.22;;
39822;SDS011;25499;53.958;10.970;2023-04-24T10:56:06;5.00;;;1.60;;
39822;SDS011;25499;53.958;10.970;2023-04-24T10:58:39;4.13;;;2.58;;
39822;SDS011;25499;53.958;10.970;2023-04-24T11:01:11;4.50;;;2.40;;
39822;SDS011;25499;53.958;10.970;2023-04-24T11:06:21;2.53;;;1.80;;
39822;SDS011;25499;53.958;10.970;2023-04-24T11:09:01;3.22;;;2.92;;
39822;SDS011;25499;53.958;10.970;2023-04-24T11:11:30;3.65;;;2.90;;
39822;SDS011;25499;53.958;10.970;2023-04-24T11:14:01;4.35;;;2.88;;
39822;SDS011;25499;53.958;10.970;2023-04-24T11:16:31;4.05;;;3.65;;
39822;SDS011;25499;53.958;10.970;2023-04-24T11:19:02;3.97;;;3.28;;
39822;SDS011;25499;53.958;10.970;2023-04-24T11:21:40;4.07;;;3.40;;
39822;SDS011;25499;53.958;10.970;2023-04-24T11:24:32;4.82;;;4.05;;
39822;SDS011;25499;53.958;10.970;2023-04-24T11:27:05;3.13;;;2.92;;
39822;SDS011;25499;53.958;10.970;2023-04-24T11:29:43;3.45;;;3.00;;
39822;SDS011;25499;53.958;10.970;2023-04-24T11:32:15;3.25;;;2.95;;
39822;SDS011;25499;53.958;10.970;2023-04-24T11:34:46;4.20;;;2.75;;
39822;SDS011;25499;53.958;10.970;2023-04-24T11:37:13;4.05;;;2.78;;
39822;SDS011;25499;53.958;10.970;2023-04-24T11:39:41;3.60;;;3.00;;
39822;SDS011;25499;53.958;10.970;2023-04-24T11:42:09;2.88;;;2.50;;
39822;SDS011;25499;53.958;10.970;2023-04-24T11:44:36;3.28;;;2.70;;
39822;SDS011;25499;53.958;10.970;2023-04-24T11:47:04;3.13;;;2.80;;
39822;SDS011;25499;53.958;10.970;2023-04-24T11:49:32;3.13;;;2.83;;
39822;SDS011;25499;53.958;10.970;2023-04-24T11:51:59;2.92;;;2.00;;
39822;SDS011;25499;53.958;10.970;2023-04-24T11:54:26;2.72;;;2.00;;
39822;SDS011;25499;53.958;10.970;2023-04-24T11:56:55;2.42;;;2.10;;
39822;SDS011;25499;53.958;10.970;2023-04-24T11:59:22;2.05;;;1.95;;
39822;SDS011;25499;53.958;10.970;2023-04-24T12:01:49;2.58;;;2.25;;
39822;SDS011;25499;53.958;10.970;2023-04-24T12:04:16;3.00;;;2.33;;
39822;SDS011;25499;53.958;10.970;2023-04-24T12:07:02;3.63;;;2.72;;
39822;SDS011;25499;53.958;10.970;2023-04-24T12:09:39;3.17;;;2.50;;
39822;SDS011;25499;53.958;10.970;2023-04-24T12:12:08;3.53;;;2.00;;
39822;SDS011;25499;53.958;10.970;2023-04-24T12:14:42;4.55;;;1.83;;
39822;SDS011;25499;53.958;10.970;2023-04-24T12:17:10;2.65;;;2.10;;
39822;SDS011;25499;53.958;10.970;2023-04-24T12:19:37;4.40;;;2.33;;
39822;SDS011;25499;53.958;10.970;2023-04-24T12:22:04;2.30;;;2.10;;
39822;SDS011;25499;53.958;10.970;2023-04-24T12:24:32;2.85;;;2.55;;
39822;SDS011;25499;53.958;10.970;2023-04-24T12:26:59;3.30;;;2.53;;
39822;SDS011;25499;53.958;10.970;2023-04-24T12:29:27;4.20;;;3.22;;
39822;SDS011;25499;53.958;10.970;2023-04-24T12:31:55;3.35;;;2.58;;
39822;SDS011;25499;53.958;10.970;2023-04-24T12:34:23;4.88;;;3.50;;
39822;SDS011;25499;53.958;10.970;2023-04-24T12:36:51;4.20;;;3.22;;
39822;SDS011;25499;53.958;10.970;2023-04-24T12:39:18;3.75;;;3.35;;
39822;SDS011;25499;53.958;10.970;2023-04-24T12:41:54;6.95;;;3.45;;
39822;SDS011;25499;53.958;10.970;2023-04-24T12:44:29;5.30;;;3.60;;
39822;SDS011;25499;53.958;10.970;2023-04-24T12:46:57;6.50;;;3.97;;
39822;SDS011;25499;53.958;10.970;2023-04-24T12:49:24;3.30;;;3.00;;
39822;SDS011;25499;53.958;10.970;2023-04-24T12:51:51;4.50;;;3.92;;
39822;SDS011;25499;53.958;10.970;2023-04-24T12:54:17;5.53;;;3.80;;
39822;SDS011;25499;53.958;10.970;2023-04-24T12:56:46;4.60;;;3.65;;
39822;SDS011;25499;53.958;10.970;2023-04-24T12:59:13;6.22;;;3.80;;
39822;SDS011;25499;53.958;10.970;2023-04-24T13:01:42;5.63;;;3.88;;
39822;SDS011;25499;53.958;10.970;2023-04-24T13:04:09;4.25;;;3.83;;
39822;SDS011;25499;53.958;10.970;2023-04-24T13:06:36;5.22;;;4.13;;
39822;SDS011;25499;53.958;10.970;2023-04-24T13:09:03;5.07;;;4.35;;
39822;SDS011;25499;53.958;10.970;2023-04-24T13:11:30;6.18;;;5.00;;
39822;SDS011;25499;53.958;10.970;2023-04-24T13:13:56;5.65;;;4.72;;
39822;SDS011;25499;53.958;10.970;2023-04-24T13:16:23;5.95;;;4.97;;
39822;SDS011;25499;53.958;10.970;2023-04-24T13:18:51;6.22;;;4.90;;
39822;SDS011;25499;53.958;10.970;2023-04-24T13:21:18;8.38;;;5.43;;
39822;SDS011;25499;53.958;10.970;2023-04-24T13:23:45;6.55;;;4.82;;
39822;SDS011;25499;53.958;10.970;2023-04-24T13:26:11;6.15;;;5.32;;
39822;SDS011;25499;53.958;10.970;2023-04-24T13:28:38;5.00;;;4.22;;
39822;SDS011;25499;53.958;10.970;2023-04-24T13:31:05;6.60;;;5.05;;
39822;SDS011;25499;53.958;10.970;2023-04-24T13:33:32;6.93;;;4.05;;
39822;SDS011;25499;53.958;10.970;2023-04-24T13:36:00;5.15;;;3.40;;
39822;SDS011;25499;53.958;10.970;2023-04-24T13:38:27;4.40;;;3.40;;
39822;SDS011;25499;53.958;10.970;2023-04-24T13:40:54;3.78;;;3.45;;
39822;SDS011;25499;53.958;10.970;2023-04-24T13:43:21;6.63;;;3.72;;
39822;SDS011;25499;53.958;10.970;2023-04-24T13:45:48;3.85;;;3.38;;
39822;SDS011;25499;53.958;10.970;2023-04-24T13:48:14;3.75;;;3.35;;
39822;SDS011;25499;53.958;10.970;2023-04-24T13:50:41;4.03;;;3.63;;
39822;SDS011;25499;53.958;10.970;2023-04-24T13:53:09;5.93;;;3.97;;
39822;SDS011;25499;53.958;10.970;2023-04-24T13:55:36;4.03;;;3.63;;
39822;SDS011;25499;53.958;10.970;2023-04-24T13:58:04;6.25;;;4.10;;
39822;SDS011;25499;53.958;10.970;2023-04-24T14:00:31;4.10;;;3.70;;
39822;SDS011;25499;53.958;10.970;2023-04-24T14:02:58;6.05;;;4.38;;
39822;SDS011;25499;53.958;10.970;2023-04-24T14:05:26;5.45;;;4.00;;
39822;SDS011;25499;53.958;10.970;2023-04-24T14:07:53;6.57;;;3.70;;
39822;SDS011;25499;53.958;10.970;2023-04-24T14:10:22;4.07;;;3.63;;
39822;SDS011;25499;53.958;10.970;2023-04-24T14:12:49;5.85;;;4.72;;
39822;SDS011;25499;53.958;10.970;2023-04-24T14:15:17;5.03;;;4.32;;
39822;SDS011;25499;53.958;10.970;2023-04-24T14:17:44;6.38;;;4.43;;
39822;SDS011;25499;53.958;10.970;2023-04-24T14:20:11;5.32;;;4.82;;
39822;SDS011;25499;53.958;10.970;2023-04-24T14:22:38;5.07;;;4.57;;
39822;SDS011;25499;53.958;10.970;2023-04-24T14:25:05;8.70;;;4.55;;
39822;SDS011;25499;53.958;10.970;2023-04-24T14:27:34;6.75;;;4.60;;
39822;SDS011;25499;53.958;10.970;2023-04-24T14:30:01;4.80;;;3.88;;
39822;SDS011;25499;53.958;10.970;2023-04-24T14:32:28;6.80;;;4.20;;
39822;SDS011;25499;53.958;10.970;2023-04-24T14:34:55;5.15;;;4.40;;
39822;SDS011;25499;53.958;10.970;2023-04-24T14:37:21;5.40;;;4.00;;
39822;SDS011;25499;53.958;10.970;2023-04-24T14:39:48;6.78;;;4.30;;
39822;SDS011;25499;53.958;10.970;2023-04-24T14:42:15;5.18;;;3.72;;
39822;SDS011;25499;53.958;10.970;2023-04-24T14:44:45;6.35;;;4.22;;
39822;SDS011;25499;53.958;10.970;2023-04-24T14:47:13;5.40;;;3.65;;
39822;SDS011;25499;53.958;10.970;2023-04-24T14:49:40;5.28;;;3.58;;
39822;SDS011;25499;53.958;10.970;2023-04-24T14:52:08;4.35;;;3.95;;
39822;SDS011;25499;53.958;10.970;2023-04-24T14:54:35;5.63;;;4.30;;
39822;SDS011;25499;53.958;10.970;2023-04-24T14:57:02;4.07;;;3.75;;
39822;SDS011;25499;53.958;10.970;2023-04-24T14:59:29;4.53;;;3.65;;
39822;SDS011;25499;53.958;10.970;2023-04-24T15:01:57;3.70;;;3.40;;
39822;SDS011;25499;53.958;10.970;2023-04-24T15:04:25;4.57;;;3.33;;
39822;SDS011;25499;53.958;10.970;2023-04-24T15:06:51;3.97;;;3.30;;
39822;SDS011;25499;53.958;10.970;2023-04-24T15:09:19;4.13;;;3.60;;
39822;SDS011;25499;53.958;10.970;2023-04-24T15:11:45;4.07;;;3.70;;
39822;SDS011;25499;53.958;10.970;2023-04-24T15:14:12;4.85;;;3.60;;
39822;SDS011;25499;53.958;10.970;2023-04-24T15:16:45;3.97;;;3.40;;
39822;SDS011;25499;53.958;10.970;2023-04-24T15:19:13;5.18;;;3.22;;
39822;SDS011;25499;53.958;10.970;2023-04-24T15:21:40;3.80;;;3.10;;
39822;SDS011;25499;53.958;10.970;2023-04-24T15:24:08;2.90;;;2.70;;
39822;SDS011;25499;53.958;10.970;2023-04-24T15:26:35;3.10;;;2.50;;
39822;SDS011;25499;53.958;10.970;2023-04-24T15:29:02;3.13;;;2.83;;
39822;SDS011;25499;53.958;10.970;2023-04-24T15:31:29;2.95;;;2.75;;
39822;SDS011;25499;53.958;10.970;2023-04-24T15:33:56;4.53;;;3.05;;
39822;SDS011;25499;53.958;10.970;2023-04-24T15:36:24;3.20;;;2.90;;
39822;SDS011;25499;53.958;10.970;2023-04-24T15:38:51;3.05;;;2.78;;
39822;SDS011;25499;53.958;10.970;2023-04-24T15:41:18;3.05;;;2.75;;
39822;SDS011;25499;53.958;10.970;2023-04-24T15:43:44;3.10;;;2.83;;
39822;SDS011;25499;53.958;10.970;2023-04-24T15:46:11;3.15;;;2.95;;
39822;SDS011;25499;53.958;10.970;2023-04-24T15:48:38;2.80;;;2.60;;
39822;SDS011;25499;53.958;10.970;2023-04-24T15:51:07;3.42;;;2.72;;
39822;SDS011;25499;53.958;10.970;2023-04-24T15:53:35;3.40;;;2.97;;
39822;SDS011;25499;53.958;10.970;2023-04-24T15:56:02;4.38;;;3.10;;
39822;SDS011;25499;53.958;10.970;2023-04-24T15:58:29;2.80;;;2.60;;
39822;SDS011;25499;53.958;10.970;2023-04-24T16:00:55;2.90;;;2.60;;
39822;SDS011;25499;53.958;10.970;2023-04-24T16:03:22;2.90;;;2.70;;
39822;SDS011;25499;53.958;10.970;2023-04-24T16:05:49;2.90;;;2.67;;
39822;SDS011;25499;53.958;10.970;2023-04-24T16:08:16;3.67;;;2.63;;
39822;SDS011;25499;53.958;10.970;2023-04-24T16:10:44;4.35;;;3.30;;
39822;SDS011;25499;53.958;10.970;2023-04-24T16:13:11;3.30;;;3.00;;
39822;SDS011;25499;53.958;10.970;2023-04-24T16:15:38;2.92;;;2.67;;
39822;SDS011;25499;53.958;10.970;2023-04-24T16:18:05;3.75;;;2.85;;
39822;SDS011;25499;53.958;10.970;2023-04-24T16:20:32;4.20;;;3.00;;
39822;SDS011;25499;53.958;10.970;2023-04-24T16:22:59;3.00;;;2.80;;
39822;SDS011;25499;53.958;10.970;2023-04-24T16:25:26;3.08;;;2.72;;
39822;SDS011;25499;53.958;10.970;2023-04-24T16:27:55;3.58;;;3.00;;
39822;SDS011;25499;53.958;10.970;2023-04-24T16:30:21;2.63;;;2.22;;
39822;SDS011;25499;53.958;10.970;2023-04-24T16:32:48;1.25;;;1.15;;
39822;SDS011;25499;53.958;10.970;2023-04-24T16:35:15;1.10;;;0.88;;
39822;SDS011;25499;53.958;10.970;2023-04-24T16:37:41;0.85;;;0.85;;
39822;SDS011;25499;53.958;10.970;2023-04-24T16:40:08;1.13;;;0.90;;
39822;SDS011;25499;53.958;10.970;2023-04-24T16:42:36;0.95;;;0.85;;
39822;SDS011;25499;53.958;10.970;2023-04-24T16:45:05;0.80;;;0.80;;
39822;SDS011;25499;53.958;10.970;2023-04-24T16:47:33;1.10;;;1.00;;
39822;SDS011;25499;53.958;10.970;2023-04-24T16:50:01;1.30;;;1.20;;
39822;SDS011;25499;53.958;10.970;2023-04-24T16:52:27;1.70;;;1.50;;
39822;SDS011;25499;53.958;10.970;2023-04-24T16:54:55;2.60;;;1.60;;
39822;SDS011;25499;53.958;10.970;2023-04-24T16:57:21;2.55;;;1.55;;
39822;SDS011;25499;53.958;10.970;2023-04-24T16:59:48;2.85;;;1.95;;
39822;SDS011;25499;53.958;10.970;2023-04-24T17:02:16;2.95;;;1.90;;
39822;SDS011;25499;53.958;10.970;2023-04-24T17:04:43;1.70;;;1.60;;
39822;SDS011;25499;53.958;10.970;2023-04-24T17:07:10;1.70;;;1.60;;
39822;SDS011;25499;53.958;10.970;2023-04-24T17:09:37;2.00;;;1.70;;
39822;SDS011;25499;53.958;10.970;2023-04-24T17:12:04;2.25;;;1.90;;
39822;SDS011;25499;53.958;10.970;2023-04-24T17:14:32;2.05;;;1.85;;
39822;SDS011;25499;53.958;10.970;2023-04-24T17:16:59;2.33;;;2.13;;
39822;SDS011;25499;53.958;10.970;2023-04-24T17:19:27;3.05;;;2.20;;
39822;SDS011;25499;53.958;10.970;2023-04-24T17:21:54;3.90;;;2.38;;
39822;SDS011;25499;53.958;10.970;2023-04-24T17:24:22;3.65;;;2.47;;
39822;SDS011;25499;53.958;10.970;2023-04-24T17:26:50;2.95;;;2.60;;
39822;SDS011;25499;53.958;10.970;2023-04-24T17:29:16;3.63;;;2.60;;
39822;SDS011;25499;53.958;10.970;2023-04-24T17:31:43;3.30;;;2.97;;
39822;SDS011;25499;53.958;10.970;2023-04-24T17:34:11;5.38;;;3.08;;
39822;SDS011;25499;53.958;10.970;2023-04-24T17:36:39;4.47;;;3.65;;
39822;SDS011;25499;53.958;10.970;2023-04-24T17:39:05;3.92;;;3.53;;
39822;SDS011;25499;53.958;10.970;2023-04-24T17:41:34;5.30;;;3.60;;
39822;SDS011;25499;53.958;10.970;2023-04-24T17:44:02;5.18;;;3.83;;
39822;SDS011;25499;53.958;10.970;2023-04-24T17:46:29;6.75;;;4.30;;
39822;SDS011;25499;53.958;10.970;2023-04-24T17:48:55;4.40;;;3.65;;
39822;SDS011;25499;53.958;10.970;2023-04-24T17:51:22;4.20;;;3.22;;
39822;SDS011;25499;53.958;10.970;2023-04-24T17:53:51;3.75;;;3.00;;
39822;SDS011;25499;53.958;10.970;2023-04-24T17:56:18;3.90;;;2.72;;
39822;SDS011;25499;53.958;10.970;2023-04-24T17:58:45;3.22;;;2.63;;
39822;SDS011;25499;53.958;10.970;2023-04-24T18:01:13;3.47;;;2.72;;
39822;SDS011;25499;53.958;10.970;2023-04-24T18:03:40;3.67;;;2.60;;
39822;SDS011;25499;53.958;10.970;2023-04-24T18:06:08;4.53;;;2.40;;
39822;SDS011;25499;53.958;10.970;2023-04-24T18:08:36;4.72;;;2.38;;
39822;SDS011;25499;53.958;10.970;2023-04-24T18:11:04;4.68;;;2.35;;
39822;SDS011;25499;53.958;10.970;2023-04-24T18:13:31;3.05;;;2.13;;
39822;SDS011;25499;53.958;10.970;2023-04-24T18:15:58;2.60;;;2.17;;
39822;SDS011;25499;53.958;10.970;2023-04-24T18:18:25;2.92;;;2.38;;
39822;SDS011;25499;53.958;10.970;2023-04-24T18:20:52;2.63;;;2.13;;
39822;SDS011;25499;53.958;10.970;2023-04-24T18:23:19;2.30;;;1.92;;
39822;SDS011;25499;53.958;10.970;2023-04-24T18:25:46;2.33;;;1.80;;
39822;SDS011;25499;53.958;10.970;2023-04-24T18:28:14;3.03;;;2.00;;
39822;SDS011;25499;53.958;10.970;2023-04-24T18:30:41;6.10;;;2.35;;
39822;SDS011;25499;53.958;10.970;2023-04-24T18:33:08;3.45;;;2.17;;
39822;SDS011;25499;53.958;10.970;2023-04-24T18:35:36;2.42;;;2.10;;
39822;SDS011;25499;53.958;10.970;2023-04-24T18:38:03;3.20;;;2.42;;
39822;SDS011;25499;53.958;10.970;2023-04-24T18:40:30;4.13;;;2.10;;
39822;SDS011;25499;53.958;10.970;2023-04-24T18:42:57;3.33;;;2.30;;
39822;SDS011;25499;53.958;10.970;2023-04-24T18:45:25;5.05;;;2.45;;
39822;SDS011;25499;53.958;10.970;2023-04-24T18:47:51;3.33;;;2.50;;
39822;SDS011;25499;53.958;10.970;2023-04-24T18:50:18;4.00;;;2.40;;
39822;SDS011;25499;53.958;10.970;2023-04-24T18:52:46;4.68;;;2.90;;
39822;SDS011;25499;53.958;10.970;2023-04-24T18:55:12;6.55;;;3.38;;
39822;SDS011;25499;53.958;10.970;2023-04-24T18:57:39;5.57;;;3.35;;
39822;SDS011;25499;53.958;10.970;2023-04-24T19:00:07;6.00;;;3.30;;
39822;SDS011;25499;53.958;10.970;2023-04-24T19:02:36;6.28;;;3.30;;
39822;SDS011;25499;53.958;10.970;2023-04-24T19:05:03;5.03;;;3.40;;
39822;SDS011;25499;53.958;10.970;2023-04-24T19:07:30;5.65;;;3.22;;
39822;SDS011;25499;53.958;10.970;2023-04-24T19:09:57;6.00;;;3.78;;
39822;SDS011;25499;53.958;10.970;2023-04-24T19:12:24;4.30;;;3.63;;
39822;SDS011;25499;53.958;10.970;2023-04-24T19:14:51;5.60;;;3.45;;
39822;SDS011;25499;53.958;10.970;2023-04-24T19:17:20;6.45;;;3.83;;
39822;SDS011;25499;53.958;10.970;2023-04-24T19:19:50;5.88;;;3.53;;
39822;SDS011;25499;53.958;10.970;2023-04-24T19:22:17;7.70;;;3.88;;
39822;SDS011;25499;53.958;10.970;2023-04-24T19:24:44;6.40;;;4.07;;
39822;SDS011;25499;53.958;10.970;2023-04-24T19:27:10;10.32;;;4.03;;
39822;SDS011;25499;53.958;10.970;2023-04-24T19:29:39;5.63;;;3.92;;
39822;SDS011;25499;53.958;10.970;2023-04-24T19:32:06;7.00;;;4.20;;
39822;SDS011;25499;53.958;10.970;2023-04-24T19:34:33;6.53;;;4.38;;
39822;SDS011;25499;53.958;10.970;2023-04-24T19:37:01;7.57;;;4.35;;
39822;SDS011;25499;53.958;10.970;2023-04-24T19:39:28;8.20;;;4.70;;
39822;SDS011;25499;53.958;10.970;2023-04-24T19:41:56;9.07;;;4.60;;
39822;SDS011;25499;53.958;10.970;2023-04-24T19:44:24;9.98;;;5.20;;
39822;SDS011;25499;53.958;10.970;2023-04-24T19:46:51;8.43;;;4.47;;
39822;SDS011;25499;53.958;10.970;2023-04-24T19:49:18;8.52;;;4.88;;
39822;SDS011;25499;53.958;10.970;2023-04-24T19:51:44;9.50;;;5.10;;
39822;SDS011;25499;53.958;10.970;2023-04-24T19:54:12;8.65;;;5.05;;
